createdAt,value
2022-12-25T00:00:20.682Z,17.60
2022-12-25T00:00:52.904Z,16.08
2022-12-25T00:01:26.375Z,14.65
2022-12-25T00:01:57.939Z,16.40
2022-12-25T00:02:29.907Z,17.50
2022-12-25T00:03:01.696Z,16.83
2022-12-25T00:03:33.413Z,16.48
2022-12-25T00:04:05.241Z,19.83
2022-12-25T00:04:36.952Z,13.85
2022-12-25T00:05:08.939Z,14.60
2022-12-25T00:05:40.505Z,15.82
2022-12-25T00:06:12.469Z,22.13
2022-12-25T00:06:44.195Z,17.92
2022-12-25T00:07:15.816Z,16.10
2022-12-25T00:07:47.383Z,17.30
2022-12-25T00:08:19.124Z,20.92
2022-12-25T00:08:50.702Z,17.83
2022-12-25T00:09:22.250Z,19.10
2022-12-25T00:09:53.849Z,19.48
2022-12-25T00:10:25.490Z,14.40
2022-12-25T00:11:06.219Z,13.95
2022-12-25T00:11:38.207Z,14.40
2022-12-25T00:12:09.838Z,13.38
2022-12-25T00:12:41.445Z,16.05
2022-12-25T00:13:13.045Z,14.38
2022-12-25T00:13:45.106Z,15.07
2022-12-25T00:14:16.785Z,14.43
2022-12-25T00:14:48.875Z,15.40
2022-12-25T00:15:20.451Z,16.40
2022-12-25T00:15:52.114Z,15.35
2022-12-25T00:16:25.969Z,16.15
2022-12-25T00:16:57.777Z,15.23
2022-12-25T00:17:29.398Z,16.08
2022-12-25T00:18:00.988Z,13.02
2022-12-25T00:18:32.625Z,12.68
2022-12-25T00:19:04.373Z,11.63
2022-12-25T00:19:35.974Z,12.50
2022-12-25T00:20:08.543Z,12.77
2022-12-25T00:20:40.146Z,11.77
2022-12-25T00:21:12.636Z,14.70
2022-12-25T00:21:44.233Z,13.88
2022-12-25T00:22:15.821Z,12.85
2022-12-25T00:22:47.494Z,12.05
2022-12-25T00:23:19.052Z,11.68
2022-12-25T00:23:58.590Z,10.80
2022-12-25T00:24:30.325Z,13.50
2022-12-25T00:25:01.957Z,13.38
2022-12-25T00:25:33.619Z,16.15
2022-12-25T00:26:11.259Z,14.63
2022-12-25T00:26:42.898Z,13.55
2022-12-25T00:27:14.936Z,15.43
2022-12-25T00:27:46.531Z,13.07
2022-12-25T00:28:18.133Z,12.25
2022-12-25T00:28:56.014Z,14.85
2022-12-25T00:29:27.569Z,13.57
2022-12-25T00:29:59.226Z,16.80
2022-12-25T00:30:30.845Z,12.73
2022-12-25T00:31:28.580Z,13.63
2022-12-25T00:32:00.737Z,11.65
2022-12-25T00:32:35.390Z,14.13
2022-12-25T00:33:07.034Z,12.77
2022-12-25T00:33:40.978Z,12.50
2022-12-25T00:34:12.578Z,13.93
2022-12-25T00:34:44.224Z,13.32
2022-12-25T00:35:15.920Z,12.20
2022-12-25T00:35:57.543Z,11.90
2022-12-25T00:36:29.119Z,12.18
2022-12-25T00:37:00.992Z,14.52
2022-12-25T00:37:32.636Z,15.07
2022-12-25T00:38:04.686Z,13.10
2022-12-25T00:38:38.027Z,12.95
2022-12-25T00:39:10.763Z,12.98
2022-12-25T00:39:42.362Z,14.18
2022-12-25T00:40:14.159Z,14.70
2022-12-25T00:40:45.724Z,12.85
2022-12-25T00:41:39.369Z,11.82
2022-12-25T00:42:20.485Z,12.90
2022-12-25T00:42:52.166Z,14.00
2022-12-25T00:43:23.914Z,16.17
2022-12-25T00:43:55.546Z,12.30
2022-12-25T00:44:27.209Z,11.65
2022-12-25T00:44:58.807Z,17.73
2022-12-25T00:45:30.381Z,15.85
2022-12-25T00:46:04.388Z,16.35
2022-12-25T00:46:36.815Z,17.73
2022-12-25T00:47:08.587Z,16.83
2022-12-25T00:47:40.191Z,17.52
2022-12-25T00:48:11.739Z,15.43
2022-12-25T00:48:45.292Z,16.42
2022-12-25T00:49:16.895Z,18.17
2022-12-25T00:49:48.507Z,15.85
2022-12-25T00:50:20.047Z,17.20
2022-12-25T00:51:01.077Z,13.95
2022-12-25T00:51:33.524Z,15.88
2022-12-25T00:52:05.490Z,14.88
2022-12-25T00:52:37.256Z,14.95
2022-12-25T00:53:08.804Z,14.85
2022-12-25T00:53:40.406Z,15.43
2022-12-25T00:54:12.008Z,15.73
2022-12-25T00:54:43.613Z,15.00
2022-12-25T00:55:15.204Z,13.63
2022-12-25T00:55:57.361Z,16.52
2022-12-25T00:56:28.957Z,16.50
2022-12-25T00:57:00.745Z,20.05
2022-12-25T00:57:33.982Z,27.88
2022-12-25T00:58:05.573Z,26.40
2022-12-25T00:58:37.214Z,29.08
2022-12-25T00:59:08.951Z,30.50
2022-12-25T00:59:41.152Z,59.30
2022-12-25T01:00:13.336Z,39.63
2022-12-25T01:00:45.008Z,40.10
2022-12-25T01:01:17.052Z,31.92
2022-12-25T01:01:49.014Z,33.10
2022-12-25T01:02:23.867Z,44.58
2022-12-25T01:02:55.709Z,53.28
2022-12-25T01:03:27.558Z,57.03
2022-12-25T01:03:59.758Z,45.75
2022-12-25T01:04:31.317Z,31.40
2022-12-25T01:05:03.196Z,40.03
2022-12-25T01:05:34.828Z,32.60
2022-12-25T01:06:08.171Z,31.88
2022-12-25T01:06:40.320Z,48.95
2022-12-25T01:07:12.303Z,57.55
2022-12-25T01:07:43.924Z,53.50
2022-12-25T01:08:15.548Z,44.42
2022-12-25T01:09:05.313Z,56.58
2022-12-25T01:09:56.182Z,47.40
2022-12-25T01:10:27.788Z,51.85
2022-12-25T01:11:06.045Z,43.03
2022-12-25T01:11:37.717Z,45.95
2022-12-25T01:12:09.309Z,38.67
2022-12-25T01:12:42.579Z,33.47
2022-12-25T01:13:14.205Z,34.92
2022-12-25T01:13:45.768Z,30.35
2022-12-25T01:14:17.381Z,25.92
2022-12-25T01:14:48.969Z,28.20
2022-12-25T01:15:20.779Z,25.13
2022-12-25T01:15:52.767Z,30.00
2022-12-25T01:16:24.542Z,23.92
2022-12-25T01:16:56.275Z,18.48
2022-12-25T01:17:28.050Z,20.95
2022-12-25T01:18:02.742Z,19.05
2022-12-25T01:18:39.029Z,15.93
2022-12-25T01:19:10.750Z,17.05
2022-12-25T01:19:42.443Z,16.23
2022-12-25T01:20:16.506Z,17.10
2022-12-25T01:20:48.636Z,17.20
2022-12-25T01:21:21.455Z,16.48
2022-12-25T01:21:53.028Z,15.23
2022-12-25T01:22:24.715Z,14.48
2022-12-25T01:22:56.277Z,13.15
2022-12-25T01:23:27.859Z,11.52
2022-12-25T01:23:59.443Z,12.20
2022-12-25T01:24:31.087Z,12.88
2022-12-25T01:25:02.837Z,12.07
2022-12-25T01:25:34.486Z,13.65
2022-12-25T01:26:07.708Z,13.38
2022-12-25T01:26:39.275Z,11.10
2022-12-25T01:27:11.702Z,12.38
2022-12-25T01:27:43.335Z,13.27
2022-12-25T01:28:16.473Z,13.18
2022-12-25T01:28:49.404Z,15.32
2022-12-25T01:29:20.963Z,11.35
2022-12-25T01:29:52.558Z,14.85
2022-12-25T01:30:24.253Z,14.75
2022-12-25T01:30:55.836Z,13.05
2022-12-25T01:31:27.469Z,13.88
2022-12-25T01:31:59.135Z,13.52
2022-12-25T01:32:30.817Z,14.85
2022-12-25T01:33:02.620Z,13.25
2022-12-25T01:33:34.269Z,12.88
2022-12-25T01:34:05.853Z,15.48
2022-12-25T01:34:37.550Z,14.80
2022-12-25T01:35:09.404Z,13.05
2022-12-25T01:35:42.039Z,15.85
2022-12-25T01:36:15.669Z,12.70
2022-12-25T01:36:47.242Z,16.42
2022-12-25T01:37:18.836Z,14.35
2022-12-25T01:37:51.767Z,15.20
2022-12-25T01:38:23.391Z,13.98
2022-12-25T01:38:55.115Z,12.45
2022-12-25T01:39:26.768Z,16.00
2022-12-25T01:39:58.364Z,14.93
2022-12-25T01:40:29.919Z,14.20
2022-12-25T01:41:01.477Z,16.58
2022-12-25T01:41:33.114Z,14.75
2022-12-25T01:42:04.818Z,12.95
2022-12-25T01:42:36.541Z,14.98
2022-12-25T01:43:30.683Z,12.73
2022-12-25T01:44:26.791Z,13.35
2022-12-25T01:45:21.802Z,13.40
2022-12-25T01:45:53.935Z,15.02
2022-12-25T01:46:25.877Z,14.38
2022-12-25T01:46:57.457Z,12.52
2022-12-25T01:47:29.049Z,15.40
2022-12-25T01:48:05.171Z,15.35
2022-12-25T01:48:38.344Z,11.90
2022-12-25T01:49:15.245Z,15.57
2022-12-25T01:49:49.891Z,17.20
2022-12-25T01:50:22.127Z,13.50
2022-12-25T01:51:01.680Z,13.68
2022-12-25T01:51:44.933Z,15.65
2022-12-25T01:52:24.555Z,11.52
2022-12-25T01:52:57.874Z,18.30
2022-12-25T01:53:29.699Z,20.38
2022-12-25T01:54:05.756Z,22.77
2022-12-25T01:54:48.522Z,20.50
2022-12-25T01:55:20.207Z,25.23
2022-12-25T01:55:57.080Z,21.00
2022-12-25T01:56:29.645Z,19.27
2022-12-25T01:57:06.286Z,17.92
2022-12-25T01:57:40.597Z,21.02
2022-12-25T01:58:12.406Z,21.35
2022-12-25T01:58:43.984Z,22.17
2022-12-25T01:59:19.553Z,18.75
2022-12-25T01:59:51.798Z,17.85
2022-12-25T02:00:23.453Z,20.23
2022-12-25T02:01:35.898Z,19.05
2022-12-25T02:02:08.372Z,17.23
2022-12-25T02:02:42.044Z,16.25
2022-12-25T02:03:14.430Z,17.48
2022-12-25T02:03:46.139Z,15.65
2022-12-25T02:04:38.975Z,14.32
2022-12-25T02:05:30.437Z,14.02
2022-12-25T02:06:04.015Z,12.15
2022-12-25T02:06:35.801Z,13.93
2022-12-25T02:07:16.478Z,13.60
2022-12-25T02:07:49.178Z,14.70
2022-12-25T02:08:22.115Z,12.75
2022-12-25T02:08:53.698Z,13.15
2022-12-25T02:09:25.297Z,13.32
2022-12-25T02:09:56.872Z,12.32
2022-12-25T02:10:28.694Z,13.80
2022-12-25T02:11:00.254Z,12.55
2022-12-25T02:11:50.326Z,13.30
2022-12-25T02:12:27.939Z,12.85
2022-12-25T02:13:00.346Z,15.73
2022-12-25T02:13:32.000Z,12.32
2022-12-25T02:14:03.742Z,13.30
2022-12-25T02:14:37.480Z,14.10
2022-12-25T02:15:12.781Z,13.10
2022-12-25T02:16:07.252Z,11.43
2022-12-25T02:16:57.240Z,11.65
2022-12-25T02:17:41.867Z,11.35
2022-12-25T02:18:33.497Z,11.88
2022-12-25T02:19:36.270Z,12.40
2022-12-25T02:20:45.389Z,13.15
2022-12-25T02:21:50.853Z,10.80
2022-12-25T02:22:39.429Z,11.57
2022-12-25T02:23:38.683Z,11.88
2022-12-25T02:24:28.076Z,12.10
2022-12-25T02:25:11.688Z,11.60
2022-12-25T02:26:11.125Z,12.60
2022-12-25T02:26:57.577Z,11.77
2022-12-25T02:28:03.899Z,12.38
2022-12-25T02:29:05.169Z,14.73
2022-12-25T02:30:06.048Z,12.55
2022-12-25T02:30:53.785Z,11.80
2022-12-25T02:31:40.584Z,10.13
2022-12-25T02:32:30.914Z,11.80
2022-12-25T02:33:28.659Z,10.55
2022-12-25T02:34:32.365Z,13.02
2022-12-25T02:35:16.443Z,10.30
2022-12-25T02:35:52.480Z,11.35
2022-12-25T02:36:29.584Z,12.80
2022-12-25T02:37:07.756Z,12.27
2022-12-25T02:37:52.920Z,9.90
2022-12-25T02:38:36.360Z,11.63
2022-12-25T02:39:37.806Z,10.77
2022-12-25T02:40:30.329Z,12.25
2022-12-25T02:41:09.629Z,11.77
2022-12-25T02:41:45.468Z,11.45
2022-12-25T02:42:45.463Z,13.95
2022-12-25T02:43:45.898Z,10.82
2022-12-25T02:44:39.665Z,9.88
2022-12-25T02:45:31.613Z,10.90
2022-12-25T02:46:27.529Z,13.77
2022-12-25T02:47:18.677Z,12.02
2022-12-25T02:48:09.237Z,12.15
2022-12-25T02:49:04.457Z,11.18
2022-12-25T02:49:56.346Z,13.80
2022-12-25T02:50:46.630Z,13.25
2022-12-25T02:51:39.989Z,11.25
2022-12-25T02:52:39.501Z,11.63
2022-12-25T02:53:30.882Z,10.55
2022-12-25T02:54:26.771Z,11.88
2022-12-25T02:55:34.760Z,10.40
2022-12-25T02:56:25.125Z,11.40
2022-12-25T02:57:19.097Z,11.32
2022-12-25T02:58:13.060Z,10.23
2022-12-25T02:59:04.951Z,10.43
2022-12-25T02:59:59.496Z,11.27
2022-12-25T03:00:53.299Z,9.70
2022-12-25T03:01:48.669Z,9.07
2022-12-25T03:02:41.372Z,9.57
2022-12-25T03:03:33.431Z,10.57
2022-12-25T03:04:27.989Z,12.88
2022-12-25T03:05:21.821Z,11.13
2022-12-25T03:06:15.750Z,13.45
2022-12-25T03:07:09.644Z,9.23
2022-12-25T03:07:43.254Z,11.10
2022-12-25T03:08:23.025Z,12.65
2022-12-25T03:09:17.159Z,11.57
2022-12-25T03:10:28.172Z,14.40
2022-12-25T03:11:27.099Z,12.07
2022-12-25T03:12:26.554Z,14.00
2022-12-25T03:13:11.329Z,11.32
2022-12-25T03:13:45.087Z,13.15
2022-12-25T03:14:35.199Z,11.13
2022-12-25T03:15:27.761Z,11.93
2022-12-25T03:16:18.272Z,10.77
2022-12-25T03:16:55.389Z,11.30
2022-12-25T03:17:27.188Z,10.80
2022-12-25T03:18:03.083Z,12.15
2022-12-25T03:18:35.487Z,11.57
2022-12-25T03:19:27.061Z,11.75
2022-12-25T03:20:17.453Z,10.25
2022-12-25T03:21:07.844Z,12.43
2022-12-25T03:21:57.792Z,10.95
2022-12-25T03:22:50.224Z,10.52
2022-12-25T03:23:46.546Z,14.48
2022-12-25T03:24:36.603Z,12.88
2022-12-25T03:25:27.617Z,12.60
2022-12-25T03:26:17.874Z,12.45
2022-12-25T03:26:55.315Z,12.60
2022-12-25T03:27:29.611Z,10.65
2022-12-25T03:28:02.045Z,10.20
2022-12-25T03:28:33.617Z,12.98
2022-12-25T03:29:05.222Z,12.15
2022-12-25T03:29:55.330Z,12.23
2022-12-25T03:31:07.716Z,12.07
2022-12-25T03:31:55.531Z,12.48
2022-12-25T03:32:41.860Z,12.10
2022-12-25T03:33:48.424Z,11.68
2022-12-25T03:34:51.313Z,12.45
2022-12-25T03:35:45.891Z,10.80
2022-12-25T03:36:39.153Z,11.60
2022-12-25T03:37:41.592Z,11.73
2022-12-25T03:38:49.405Z,10.93
2022-12-25T03:39:49.846Z,14.70
2022-12-25T03:40:58.841Z,10.35
2022-12-25T03:42:12.410Z,11.93
2022-12-25T03:43:11.842Z,10.98
2022-12-25T03:44:09.254Z,12.43
2022-12-25T03:45:27.823Z,11.18
2022-12-25T03:46:23.876Z,11.27
2022-12-25T03:47:34.482Z,12.57
2022-12-25T03:48:13.404Z,12.65
2022-12-25T03:49:09.040Z,11.32
2022-12-25T03:50:34.158Z,16.30
2022-12-25T03:51:28.398Z,16.20
2022-12-25T03:52:21.222Z,11.90
2022-12-25T03:53:13.135Z,12.25
2022-12-25T03:54:06.636Z,14.52
2022-12-25T03:54:59.796Z,13.35
2022-12-25T03:55:51.276Z,13.18
2022-12-25T03:56:42.313Z,13.60
2022-12-25T03:57:33.290Z,14.65
2022-12-25T03:58:23.365Z,13.15
2022-12-25T03:59:22.870Z,14.05
2022-12-25T04:00:14.450Z,14.65
2022-12-25T04:01:04.509Z,14.05
2022-12-25T04:01:54.934Z,12.63
2022-12-25T04:02:45.105Z,14.45
2022-12-25T04:03:45.926Z,12.40
2022-12-25T04:04:36.320Z,13.55
2022-12-25T04:05:26.760Z,14.20
2022-12-25T04:06:16.787Z,14.20
2022-12-25T04:07:07.349Z,12.25
2022-12-25T04:07:58.213Z,12.07
2022-12-25T04:08:48.103Z,11.80
2022-12-25T04:09:38.229Z,11.57
2022-12-25T04:10:29.145Z,11.52
2022-12-25T04:11:19.056Z,10.95
2022-12-25T04:12:09.299Z,11.60
2022-12-25T04:12:59.457Z,12.98
2022-12-25T04:13:49.319Z,12.43
2022-12-25T04:14:39.490Z,10.48
2022-12-25T04:15:29.976Z,11.70
2022-12-25T04:16:20.335Z,11.40
2022-12-25T04:17:10.665Z,14.00
2022-12-25T04:18:00.453Z,12.52
2022-12-25T04:18:50.863Z,22.85
2022-12-25T04:19:40.887Z,21.05
2022-12-25T04:20:31.112Z,22.60
2022-12-25T04:21:21.463Z,25.67
2022-12-25T04:22:11.822Z,27.30
2022-12-25T04:23:01.765Z,31.65
2022-12-25T04:23:52.269Z,28.58
2022-12-25T04:24:42.063Z,23.90
2022-12-25T04:25:32.379Z,28.30
2022-12-25T04:26:22.354Z,23.33
2022-12-25T04:27:12.299Z,21.48
2022-12-25T04:28:02.151Z,23.92
2022-12-25T04:28:52.461Z,19.17
2022-12-25T04:29:42.397Z,14.23
2022-12-25T04:30:32.614Z,17.15
2022-12-25T04:31:22.655Z,16.38
2022-12-25T04:32:12.855Z,18.70
2022-12-25T04:33:03.214Z,20.30
2022-12-25T04:33:53.565Z,18.40
2022-12-25T04:34:43.996Z,18.88
2022-12-25T04:35:34.323Z,22.20
2022-12-25T04:36:14.852Z,23.52
2022-12-25T04:36:46.453Z,24.23
2022-12-25T04:37:18.158Z,26.63
2022-12-25T04:37:49.736Z,24.45
2022-12-25T04:38:22.366Z,26.27
2022-12-25T04:38:53.963Z,28.52
2022-12-25T04:39:25.535Z,25.88
2022-12-25T04:39:57.081Z,20.13
2022-12-25T04:40:28.766Z,18.23
2022-12-25T04:41:01.927Z,23.15
2022-12-25T04:41:33.561Z,21.98
2022-12-25T04:42:05.218Z,19.35
2022-12-25T04:42:36.886Z,20.77
2022-12-25T04:43:08.432Z,18.42
2022-12-25T04:43:40.082Z,19.98
2022-12-25T04:44:11.695Z,19.35
2022-12-25T04:44:43.389Z,21.08
2022-12-25T04:45:14.994Z,17.70
2022-12-25T04:45:55.834Z,14.48
2022-12-25T04:46:27.666Z,16.70
2022-12-25T04:46:59.264Z,17.08
2022-12-25T04:47:30.950Z,17.98
2022-12-25T04:48:02.568Z,20.95
2022-12-25T04:48:35.966Z,23.30
2022-12-25T04:49:07.615Z,21.02
2022-12-25T04:49:39.713Z,23.23
2022-12-25T04:50:11.363Z,26.63
2022-12-25T04:50:42.953Z,37.38
2022-12-25T04:51:18.186Z,47.05
2022-12-25T04:51:49.789Z,36.15
2022-12-25T04:52:21.362Z,31.30
2022-12-25T04:52:52.987Z,27.33
2022-12-25T04:53:24.607Z,22.92
2022-12-25T04:53:56.645Z,15.70
2022-12-25T04:54:28.233Z,15.00
2022-12-25T04:54:59.809Z,15.40
2022-12-25T04:55:31.406Z,13.05
2022-12-25T04:56:03.414Z,12.13
2022-12-25T04:56:40.033Z,13.00
2022-12-25T04:57:15.517Z,13.50
2022-12-25T04:57:47.062Z,13.77
2022-12-25T04:58:18.681Z,10.93
2022-12-25T04:58:50.273Z,12.15
2022-12-25T04:59:21.967Z,12.50
2022-12-25T04:59:53.561Z,12.02
2022-12-25T05:00:25.141Z,12.65
2022-12-25T05:01:00.532Z,13.50
2022-12-25T05:01:32.682Z,16.67
2022-12-25T05:02:04.419Z,14.50
2022-12-25T05:02:36.315Z,13.68
2022-12-25T05:03:08.156Z,14.13
2022-12-25T05:03:40.627Z,13.95
2022-12-25T05:04:12.369Z,13.25
2022-12-25T05:04:43.926Z,15.13
2022-12-25T05:05:15.616Z,13.02
2022-12-25T05:05:48.587Z,13.57
2022-12-25T05:06:20.507Z,14.93
2022-12-25T05:06:52.125Z,13.60
2022-12-25T05:07:24.099Z,11.57
2022-12-25T05:07:56.779Z,13.40
2022-12-25T05:08:30.143Z,11.05
2022-12-25T05:09:01.775Z,11.27
2022-12-25T05:09:33.397Z,13.65
2022-12-25T05:10:05.410Z,10.80
2022-12-25T05:10:40.261Z,11.30
2022-12-25T05:11:14.018Z,12.68
2022-12-25T05:11:45.713Z,13.00
2022-12-25T05:12:17.325Z,15.45
2022-12-25T05:12:48.881Z,14.68
2022-12-25T05:13:20.483Z,14.18
2022-12-25T05:13:52.096Z,12.82
2022-12-25T05:14:23.872Z,12.82
2022-12-25T05:14:55.621Z,14.23
2022-12-25T05:15:27.191Z,12.80
2022-12-25T05:15:58.861Z,11.48
2022-12-25T05:16:30.686Z,14.52
2022-12-25T05:17:02.437Z,15.50
2022-12-25T05:17:34.184Z,13.32
2022-12-25T05:18:05.881Z,14.70
2022-12-25T05:18:37.528Z,16.85
2022-12-25T05:19:09.641Z,13.93
2022-12-25T05:19:41.185Z,13.70
2022-12-25T05:20:12.833Z,12.35
2022-12-25T05:20:54.741Z,15.27
2022-12-25T05:21:26.464Z,14.55
2022-12-25T05:21:58.045Z,13.77
2022-12-25T05:22:29.658Z,14.43
2022-12-25T05:23:01.289Z,13.60
2022-12-25T05:23:32.832Z,12.70
2022-12-25T05:24:04.624Z,13.77
2022-12-25T05:24:36.243Z,13.23
2022-12-25T05:25:08.163Z,13.90
2022-12-25T05:25:40.696Z,14.10
2022-12-25T05:26:12.298Z,13.73
2022-12-25T05:26:43.986Z,13.82
2022-12-25T05:27:16.219Z,13.88
2022-12-25T05:27:53.735Z,14.00
2022-12-25T05:28:25.601Z,15.55
2022-12-25T05:28:57.159Z,16.15
2022-12-25T05:29:28.746Z,16.15
2022-12-25T05:30:00.330Z,15.60
2022-12-25T05:30:31.877Z,15.35
2022-12-25T05:31:03.627Z,16.23
2022-12-25T05:31:35.327Z,17.65
2022-12-25T05:32:07.014Z,14.75
2022-12-25T05:32:38.695Z,23.73
2022-12-25T05:33:10.423Z,37.90
2022-12-25T05:33:41.989Z,37.55
2022-12-25T05:34:13.572Z,41.38
2022-12-25T05:34:45.185Z,42.17
2022-12-25T05:35:16.865Z,35.80
2022-12-25T05:35:48.433Z,32.30
2022-12-25T05:36:20.074Z,26.65
2022-12-25T05:36:51.780Z,26.38
2022-12-25T05:37:23.397Z,25.95
2022-12-25T05:37:55.014Z,21.73
2022-12-25T05:38:26.605Z,20.60
2022-12-25T05:38:58.236Z,19.10
2022-12-25T05:39:29.872Z,17.17
2022-12-25T05:40:03.011Z,16.73
2022-12-25T05:40:38.237Z,12.45
2022-12-25T05:41:10.092Z,14.27
2022-12-25T05:41:41.706Z,13.75
2022-12-25T05:42:13.266Z,13.95
2022-12-25T05:42:44.829Z,13.05
2022-12-25T05:43:16.428Z,14.60
2022-12-25T05:43:47.974Z,12.95
2022-12-25T05:44:19.527Z,14.05
2022-12-25T05:44:51.107Z,15.70
2022-12-25T05:45:22.734Z,15.45
2022-12-25T05:45:54.323Z,18.40
2022-12-25T05:46:25.952Z,23.33
2022-12-25T05:46:57.613Z,24.52
2022-12-25T05:47:29.190Z,26.58
2022-12-25T05:48:00.929Z,28.40
2022-12-25T05:48:33.613Z,27.13
2022-12-25T05:49:05.829Z,27.83
2022-12-25T05:49:37.394Z,26.75
2022-12-25T05:50:09.231Z,31.65
2022-12-25T05:50:40.840Z,26.20
2022-12-25T05:51:14.510Z,28.13
2022-12-25T05:51:46.144Z,21.33
2022-12-25T05:52:17.701Z,24.65
2022-12-25T05:52:49.309Z,19.83
2022-12-25T05:53:20.933Z,19.02
2022-12-25T05:53:52.660Z,23.65
2022-12-25T05:54:24.219Z,17.17
2022-12-25T05:54:55.796Z,16.85
2022-12-25T05:55:27.336Z,17.42
2022-12-25T05:56:04.209Z,18.00
2022-12-25T05:56:35.823Z,15.32
2022-12-25T05:57:07.385Z,12.63
2022-12-25T05:57:38.985Z,18.65
2022-12-25T05:58:12.045Z,13.57
2022-12-25T05:58:43.638Z,15.43
2022-12-25T05:59:15.253Z,18.55
2022-12-25T05:59:46.806Z,19.20
2022-12-25T06:00:18.931Z,19.25
2022-12-25T06:00:50.536Z,19.38
2022-12-25T06:01:24.484Z,18.67
2022-12-25T06:01:56.330Z,16.75
2022-12-25T06:02:28.066Z,16.35
2022-12-25T06:03:00.192Z,18.98
2022-12-25T06:03:31.963Z,15.38
2022-12-25T06:04:08.418Z,19.15
2022-12-25T06:04:43.627Z,16.65
2022-12-25T06:05:15.399Z,17.45
2022-12-25T06:05:47.030Z,13.52
2022-12-25T06:06:19.167Z,15.70
2022-12-25T06:06:50.800Z,14.43
2022-12-25T06:07:22.403Z,13.07
2022-12-25T06:07:53.965Z,13.90
2022-12-25T06:08:25.517Z,15.85
2022-12-25T06:08:57.117Z,13.10
2022-12-25T06:09:28.708Z,13.40
2022-12-25T06:10:00.280Z,14.07
2022-12-25T06:10:31.905Z,13.93
2022-12-25T06:11:05.486Z,16.42
2022-12-25T06:11:37.081Z,16.85
2022-12-25T06:12:09.486Z,15.40
2022-12-25T06:12:41.137Z,14.75
2022-12-25T06:13:13.161Z,12.85
2022-12-25T06:13:44.798Z,12.45
2022-12-25T06:14:16.697Z,15.70
2022-12-25T06:14:48.327Z,13.27
2022-12-25T06:15:19.950Z,15.65
2022-12-25T06:15:51.556Z,11.52
2022-12-25T06:16:23.290Z,13.00
2022-12-25T06:16:54.977Z,12.77
2022-12-25T06:17:27.203Z,12.63
2022-12-25T06:18:01.672Z,13.77
2022-12-25T06:18:40.652Z,15.23
2022-12-25T06:19:12.242Z,14.40
2022-12-25T06:19:43.905Z,14.30
2022-12-25T06:20:15.517Z,14.38
2022-12-25T06:20:47.153Z,16.95
2022-12-25T06:21:19.058Z,14.25
2022-12-25T06:21:54.515Z,17.60
2022-12-25T06:22:30.907Z,13.45
2022-12-25T06:23:02.778Z,15.15
2022-12-25T06:23:34.510Z,14.32
2022-12-25T06:24:06.448Z,12.00
2022-12-25T06:24:38.619Z,13.68
2022-12-25T06:25:10.201Z,14.43
2022-12-25T06:25:41.964Z,13.52
2022-12-25T06:26:19.658Z,11.88
2022-12-25T06:26:51.475Z,13.60
2022-12-25T06:27:23.084Z,12.52
2022-12-25T06:27:54.706Z,13.20
2022-12-25T06:28:26.267Z,14.75
2022-12-25T06:28:57.807Z,13.07
2022-12-25T06:29:29.342Z,15.02
2022-12-25T06:30:00.894Z,14.48
2022-12-25T06:30:33.808Z,15.80
2022-12-25T06:31:07.778Z,12.95
2022-12-25T06:31:39.433Z,13.73
2022-12-25T06:32:11.026Z,12.05
2022-12-25T06:32:42.703Z,15.05
2022-12-25T06:33:14.248Z,14.40
2022-12-25T06:33:46.092Z,12.25
2022-12-25T06:34:17.691Z,15.65
2022-12-25T06:34:49.236Z,18.02
2022-12-25T06:35:20.828Z,14.15
2022-12-25T06:35:52.430Z,12.27
2022-12-25T06:36:26.775Z,15.38
2022-12-25T06:36:58.408Z,12.55
2022-12-25T06:37:31.112Z,12.82
2022-12-25T06:38:02.774Z,11.55
2022-12-25T06:38:35.238Z,14.95
2022-12-25T06:39:06.808Z,14.45
2022-12-25T06:39:38.380Z,12.93
2022-12-25T06:40:10.250Z,14.23
2022-12-25T06:40:41.809Z,13.68
2022-12-25T06:41:19.305Z,15.77
2022-12-25T06:41:50.988Z,13.93
2022-12-25T06:42:22.586Z,14.48
2022-12-25T06:42:54.226Z,14.65
2022-12-25T06:43:25.756Z,16.05
2022-12-25T06:43:59.920Z,13.27
2022-12-25T06:44:31.576Z,15.32
2022-12-25T06:45:03.251Z,14.73
2022-12-25T06:45:35.837Z,16.77
2022-12-25T06:46:12.254Z,16.45
2022-12-25T06:46:43.959Z,15.18
2022-12-25T06:47:15.553Z,16.48
2022-12-25T06:47:47.137Z,16.83
2022-12-25T06:48:18.730Z,18.98
2022-12-25T06:48:50.937Z,21.52
2022-12-25T06:49:22.627Z,21.33
2022-12-25T06:49:54.228Z,22.13
2022-12-25T06:50:25.819Z,25.50
2022-12-25T06:50:57.397Z,23.65
2022-12-25T06:51:31.177Z,24.15
2022-12-25T06:52:03.281Z,17.75
2022-12-25T06:52:35.084Z,16.95
2022-12-25T06:53:06.677Z,13.18
2022-12-25T06:53:40.369Z,14.70
2022-12-25T06:54:12.959Z,17.00
2022-12-25T06:54:44.572Z,17.52
2022-12-25T06:55:16.178Z,16.42
2022-12-25T06:55:47.736Z,16.30
2022-12-25T06:56:24.206Z,17.20
2022-12-25T06:56:55.948Z,17.95
2022-12-25T06:57:27.556Z,16.42
2022-12-25T06:57:59.207Z,20.52
2022-12-25T06:58:30.759Z,20.38
2022-12-25T06:59:08.203Z,17.25
2022-12-25T06:59:39.795Z,16.92
2022-12-25T07:00:11.833Z,15.48
2022-12-25T07:00:43.510Z,14.50
2022-12-25T07:01:36.028Z,18.35
2022-12-25T07:02:17.256Z,16.10
2022-12-25T07:02:50.017Z,20.52
2022-12-25T07:03:22.353Z,20.35
2022-12-25T07:03:59.809Z,21.73
2022-12-25T07:04:39.197Z,19.17
2022-12-25T07:05:10.776Z,16.00
2022-12-25T07:05:42.329Z,18.85
2022-12-25T07:06:15.155Z,20.17
2022-12-25T07:06:46.993Z,18.85
2022-12-25T07:07:18.569Z,24.10
2022-12-25T07:07:50.200Z,20.23
2022-12-25T07:08:21.782Z,21.65
2022-12-25T07:08:53.796Z,21.77
2022-12-25T07:09:25.695Z,18.25
2022-12-25T07:09:57.292Z,17.02
2022-12-25T07:10:28.961Z,15.82
2022-12-25T07:11:00.649Z,17.75
2022-12-25T07:11:32.320Z,18.35
2022-12-25T07:12:13.603Z,15.00
2022-12-25T07:12:45.208Z,15.55
2022-12-25T07:13:16.762Z,15.45
2022-12-25T07:13:48.744Z,18.08
2022-12-25T07:14:24.528Z,16.38
2022-12-25T07:14:56.395Z,15.32
2022-12-25T07:15:27.956Z,18.52
2022-12-25T07:16:02.065Z,17.65
2022-12-25T07:16:33.760Z,17.90
2022-12-25T07:17:05.601Z,18.88
2022-12-25T07:17:37.228Z,16.75
2022-12-25T07:18:08.790Z,18.13
2022-12-25T07:18:41.201Z,16.48
2022-12-25T07:19:12.866Z,19.13
2022-12-25T07:19:45.469Z,15.70
2022-12-25T07:20:17.216Z,17.25
2022-12-25T07:20:48.813Z,19.40
2022-12-25T07:21:21.643Z,16.95
2022-12-25T07:21:53.189Z,20.35
2022-12-25T07:22:24.740Z,20.15
2022-12-25T07:22:56.476Z,19.77
2022-12-25T07:23:28.108Z,18.13
2022-12-25T07:23:59.702Z,19.42
2022-12-25T07:24:32.844Z,17.88
2022-12-25T07:25:04.739Z,18.42
2022-12-25T07:25:37.609Z,17.73
2022-12-25T07:26:10.975Z,19.25
2022-12-25T07:26:42.551Z,19.77
2022-12-25T07:27:14.151Z,19.75
2022-12-25T07:27:47.265Z,20.63
2022-12-25T07:28:18.874Z,18.85
2022-12-25T07:28:50.429Z,19.90
2022-12-25T07:29:21.977Z,17.63
2022-12-25T07:29:53.529Z,17.83
2022-12-25T07:30:25.197Z,19.83
2022-12-25T07:31:02.002Z,20.98
2022-12-25T07:31:33.691Z,19.10
2022-12-25T07:32:05.909Z,15.88
2022-12-25T07:32:37.701Z,18.65
2022-12-25T07:33:09.284Z,18.67
2022-12-25T07:33:41.561Z,18.38
2022-12-25T07:34:13.267Z,16.80
2022-12-25T07:34:44.818Z,15.40
2022-12-25T07:35:16.405Z,16.80
2022-12-25T07:35:48.163Z,19.38
2022-12-25T07:36:20.058Z,18.70
2022-12-25T07:36:51.864Z,19.30
2022-12-25T07:37:23.505Z,19.63
2022-12-25T07:37:55.064Z,17.63
2022-12-25T07:38:26.646Z,17.77
2022-12-25T07:38:58.384Z,18.33
2022-12-25T07:39:30.343Z,20.02
2022-12-25T07:40:02.076Z,19.80
2022-12-25T07:40:33.654Z,17.08
2022-12-25T07:41:08.475Z,19.88
2022-12-25T07:41:40.359Z,18.85
2022-12-25T07:42:12.067Z,19.00
2022-12-25T07:42:43.647Z,18.27
2022-12-25T07:43:15.227Z,18.13
2022-12-25T07:43:50.512Z,17.42
2022-12-25T07:44:22.558Z,16.73
2022-12-25T07:44:54.109Z,17.70
2022-12-25T07:45:25.786Z,17.30
2022-12-25T07:45:59.236Z,16.25
2022-12-25T07:46:31.037Z,18.35
2022-12-25T07:47:02.616Z,18.55
2022-12-25T07:47:34.163Z,18.45
2022-12-25T07:48:08.475Z,16.88
2022-12-25T07:48:43.521Z,17.95
2022-12-25T07:49:15.268Z,20.98
2022-12-25T07:49:46.848Z,19.25
2022-12-25T07:50:18.497Z,16.85
2022-12-25T07:50:56.510Z,16.23
2022-12-25T07:51:30.201Z,17.58
2022-12-25T07:52:01.792Z,16.45
2022-12-25T07:52:38.018Z,14.77
2022-12-25T07:53:13.017Z,17.85
2022-12-25T07:53:44.596Z,17.83
2022-12-25T07:54:16.191Z,16.52
2022-12-25T07:54:47.898Z,15.52
2022-12-25T07:55:19.491Z,15.57